createdAt,value
2019-04-05T00:00:13.128Z,12.90
2019-04-05T00:01:13.113Z,12.20
2019-04-05T00:02:13.100Z,12.80
2019-04-05T00:03:13.105Z,13.30
2019-04-05T00:04:13.074Z,13.00
2019-04-05T00:05:13.065Z,12.70
2019-04-05T00:06:13.052Z,13.80
2019-04-05T00:07:13.047Z,12.80
2019-04-05T00:08:13.033Z,12.60
2019-04-05T00:09:13.035Z,12.80
2019-04-05T00:10:13.011Z,12.80
2019-04-05T00:11:12.995Z,13.10
2019-04-05T00:12:12.994Z,13.00
2019-04-05T00:13:12.996Z,12.30
2019-04-05T00:14:12.970Z,12.80
2019-04-05T00:15:15.494Z,12.80
2019-04-05T00:16:12.939Z,12.30
2019-04-05T00:17:12.931Z,13.00
2019-04-05T00:18:12.914Z,12.40
2019-04-05T00:19:12.913Z,13.40
2019-04-05T00:20:12.899Z,12.40
2019-04-05T00:21:12.883Z,12.90
2019-04-05T00:22:12.877Z,13.00
2019-04-05T00:23:12.860Z,13.10
2019-04-05T00:24:12.884Z,12.60
2019-04-05T00:25:12.843Z,12.40
2019-04-05T00:26:12.841Z,13.00
2019-04-05T00:27:12.820Z,12.50
2019-04-05T00:28:12.813Z,12.10
2019-04-05T00:29:12.795Z,12.70
2019-04-05T00:30:12.796Z,13.10
2019-04-05T00:31:12.771Z,12.60
2019-04-05T00:32:12.763Z,12.20
2019-04-05T00:33:12.750Z,13.60
2019-04-05T00:34:12.744Z,12.40
2019-04-05T00:35:12.743Z,12.70
2019-04-05T00:36:12.745Z,13.20
2019-04-05T00:37:12.705Z,13.20
2019-04-05T00:38:12.692Z,13.10
2019-04-05T00:39:12.697Z,12.70
2019-04-05T00:40:12.669Z,12.70
2019-04-05T00:41:12.680Z,13.70
2019-04-05T00:42:12.653Z,13.30
2019-04-05T00:43:12.644Z,13.30
2019-04-05T00:44:12.628Z,12.60
2019-04-05T00:45:12.625Z,12.80
2019-04-05T00:46:12.612Z,13.30
2019-04-05T00:47:12.599Z,13.10
2019-04-05T00:48:12.581Z,13.20
2019-04-05T00:49:12.597Z,13.00
2019-04-05T00:50:12.558Z,13.80
2019-04-05T00:51:12.560Z,13.20
2019-04-05T00:52:12.683Z,13.00
2019-04-05T00:53:12.523Z,13.20
2019-04-05T00:54:12.514Z,13.20
2019-04-05T00:55:12.507Z,13.60
2019-04-05T00:56:12.497Z,12.90
2019-04-05T00:57:12.479Z,12.90
2019-04-05T00:58:12.481Z,13.20
2019-04-05T00:59:12.460Z,13.90
2019-04-05T01:00:12.453Z,13.00
2019-04-05T01:01:12.433Z,13.00
2019-04-05T01:02:12.442Z,13.50
2019-04-05T01:03:13.316Z,13.90
2019-04-05T01:04:12.401Z,14.10
2019-04-05T01:05:12.388Z,13.20
2019-04-05T01:06:12.378Z,13.30
2019-04-05T01:07:12.370Z,13.40
2019-04-05T01:08:12.358Z,13.40
2019-04-05T01:09:12.355Z,13.30
2019-04-05T01:10:12.334Z,13.70
2019-04-05T01:11:12.323Z,13.90
2019-04-05T01:12:12.318Z,13.90
2019-04-05T01:13:12.299Z,13.70
2019-04-05T01:14:26.879Z,13.30
2019-04-05T01:15:12.285Z,14.30
2019-04-05T01:16:12.267Z,13.00
2019-04-05T01:17:24.152Z,13.50
2019-04-05T01:18:13.244Z,13.20
2019-04-05T01:19:12.251Z,13.30
2019-04-05T01:20:12.222Z,13.80
2019-04-05T01:21:12.206Z,14.10
2019-04-05T01:22:12.196Z,13.80
2019-04-05T01:23:12.195Z,13.80
2019-04-05T01:24:12.184Z,14.10
2019-04-05T01:25:12.164Z,13.40
2019-04-05T01:26:12.148Z,13.90
2019-04-05T01:27:12.141Z,13.60
2019-04-05T01:28:12.164Z,14.40
2019-04-05T01:29:12.125Z,14.10
2019-04-05T01:30:12.111Z,13.70
2019-04-05T01:31:12.119Z,13.90
2019-04-05T01:32:12.090Z,13.30
2019-04-05T01:33:12.072Z,13.70
2019-04-05T01:34:12.071Z,13.10
2019-04-05T01:35:12.055Z,14.10
2019-04-05T01:36:12.040Z,13.60
2019-04-05T01:37:12.043Z,13.90
2019-04-05T01:38:12.040Z,13.10
2019-04-05T01:39:12.008Z,14.20
2019-04-05T01:40:11.999Z,14.10
2019-04-05T01:41:11.986Z,13.80
2019-04-05T01:42:11.983Z,14.30
2019-04-05T01:43:11.969Z,13.30
2019-04-05T01:44:11.959Z,13.60
2019-04-05T01:45:11.940Z,13.20
2019-04-05T01:46:11.931Z,13.50
2019-04-05T01:47:11.966Z,13.60
2019-04-05T01:48:11.910Z,13.90
2019-04-05T01:49:11.896Z,13.70
2019-04-05T01:50:11.891Z,14.20
2019-04-05T01:51:11.904Z,13.90
2019-04-05T01:52:11.871Z,14.30
2019-04-05T01:53:11.873Z,13.60
2019-04-05T01:54:11.843Z,14.10
2019-04-05T01:55:11.840Z,14.20
2019-04-05T01:56:11.820Z,14.40
2019-04-05T01:57:11.811Z,14.20
2019-04-05T01:58:11.834Z,14.40
2019-04-05T01:59:11.794Z,13.40
2019-04-05T02:00:11.778Z,13.30
2019-04-05T02:01:11.788Z,13.90
2019-04-05T02:02:11.757Z,14.30
2019-04-05T02:03:11.750Z,14.00
2019-04-05T02:04:11.747Z,15.30
2019-04-05T02:05:11.722Z,13.70
2019-04-05T02:06:11.713Z,14.60
2019-04-05T02:07:11.708Z,14.40
2019-04-05T02:08:11.694Z,14.20
2019-04-05T02:09:11.684Z,14.10
2019-04-05T02:10:11.674Z,14.30
2019-04-05T02:11:11.673Z,14.60
2019-04-05T02:12:11.653Z,15.10
2019-04-05T02:13:11.637Z,15.00
2019-04-05T02:14:11.644Z,14.30
2019-04-05T02:15:11.619Z,14.30
2019-04-05T02:16:11.617Z,14.90
2019-04-05T02:17:11.591Z,14.20
2019-04-05T02:18:11.581Z,14.10
2019-04-05T02:19:11.569Z,14.80
2019-04-05T02:20:11.566Z,14.70
2019-04-05T02:21:11.590Z,14.40
2019-04-05T02:22:11.541Z,14.20
2019-04-05T02:23:11.535Z,14.50
2019-04-05T02:24:11.516Z,15.50
2019-04-05T02:25:11.513Z,15.00
2019-04-05T02:26:11.506Z,15.30
2019-04-05T02:27:11.515Z,14.20
2019-04-05T02:28:11.472Z,14.70
2019-04-05T02:29:11.466Z,14.30
2019-04-05T02:30:11.453Z,14.30
2019-04-05T02:31:11.439Z,14.60
2019-04-05T02:32:11.462Z,14.70
2019-04-05T02:33:11.416Z,14.40
2019-04-05T02:34:11.415Z,14.90
2019-04-05T02:35:11.400Z,14.10
2019-04-05T02:36:11.396Z,14.30
2019-04-05T02:37:11.401Z,14.20
2019-04-05T02:38:11.373Z,15.10
2019-04-05T02:39:11.356Z,14.20
2019-04-05T02:40:11.342Z,14.80
2019-04-05T02:41:11.334Z,14.90
2019-04-05T02:42:11.318Z,15.60
2019-04-05T02:43:11.319Z,15.10
2019-04-05T02:44:11.299Z,14.70
2019-04-05T02:45:11.309Z,15.00
2019-04-05T02:46:23.234Z,15.50
2019-04-05T02:47:12.266Z,15.60
2019-04-05T02:48:11.264Z,15.80
2019-04-05T02:49:11.258Z,15.40
2019-04-05T02:50:11.240Z,16.00
2019-04-05T02:51:11.233Z,15.70
2019-04-05T02:52:11.211Z,15.10
2019-04-05T02:53:11.239Z,15.00
2019-04-05T02:54:11.207Z,14.90
2019-04-05T02:55:11.188Z,16.00
2019-04-05T02:56:11.167Z,15.40
2019-04-05T02:57:11.165Z,15.10
2019-04-05T02:58:11.146Z,15.80
2019-04-05T02:59:11.155Z,16.10
2019-04-05T03:00:11.166Z,15.40
2019-04-05T03:01:11.117Z,16.00
2019-04-05T03:02:11.105Z,15.90
2019-04-05T03:03:11.104Z,15.50
2019-04-05T03:04:11.084Z,16.10
2019-04-05T03:05:11.073Z,15.80
2019-04-05T03:06:11.066Z,14.90
2019-04-05T03:07:11.049Z,15.20
2019-04-05T03:08:11.040Z,15.50
2019-04-05T03:09:11.028Z,15.70
2019-04-05T03:10:11.029Z,16.60
2019-04-05T03:11:11.006Z,16.80
2019-04-05T03:12:10.991Z,15.80
2019-04-05T03:13:11.004Z,15.90
2019-04-05T03:14:10.980Z,16.40
2019-04-05T03:15:10.979Z,16.20
2019-04-05T03:16:10.947Z,15.20
2019-04-05T03:17:10.937Z,16.20
2019-04-05T03:18:10.936Z,16.30
2019-04-05T03:19:10.917Z,15.40
2019-04-05T03:20:10.928Z,15.10
2019-04-05T03:21:10.892Z,16.10
2019-04-05T03:22:10.890Z,16.60
2019-04-05T03:23:10.876Z,16.50
2019-04-05T03:24:10.864Z,16.60
2019-04-05T03:25:10.875Z,15.70
2019-04-05T03:26:10.869Z,16.80
2019-04-05T03:27:10.832Z,15.90
2019-04-05T03:28:10.820Z,16.20
2019-04-05T03:29:10.823Z,16.70
2019-04-05T03:30:10.803Z,16.20
2019-04-05T03:31:10.808Z,16.90
2019-04-05T03:32:10.778Z,16.40
2019-04-05T03:33:10.762Z,16.40
2019-04-05T03:34:10.755Z,16.30
2019-04-05T03:35:10.781Z,16.30
2019-04-05T03:36:10.737Z,16.40
2019-04-05T03:37:10.723Z,16.40
2019-04-05T03:38:10.717Z,16.70
2019-04-05T03:39:10.695Z,16.70
2019-04-05T03:40:10.685Z,15.90
2019-04-05T03:41:10.715Z,16.00
2019-04-05T03:42:10.664Z,17.20
2019-04-05T03:43:10.657Z,16.80
2019-04-05T03:44:10.650Z,16.20
2019-04-05T03:45:10.636Z,16.20
2019-04-05T03:46:10.653Z,16.70
2019-04-05T03:47:10.657Z,16.60
2019-04-05T03:48:10.594Z,16.10
2019-04-05T03:49:10.604Z,16.80
2019-04-05T03:50:10.580Z,16.70
2019-04-05T03:51:10.565Z,15.90
2019-04-05T03:52:10.556Z,16.00
2019-04-05T03:53:10.559Z,16.30
2019-04-05T03:54:10.529Z,16.70
2019-04-05T03:55:10.522Z,17.20
2019-04-05T03:56:10.510Z,17.00
2019-04-05T03:57:10.499Z,17.00
2019-04-05T03:58:10.503Z,16.10
2019-04-05T03:59:10.473Z,16.40
2019-04-05T04:00:10.470Z,16.40
2019-04-05T04:01:10.455Z,17.50
2019-04-05T04:02:10.446Z,17.10
2019-04-05T04:03:10.444Z,16.30
2019-04-05T04:04:10.446Z,17.40
2019-04-05T04:05:10.421Z,17.50
2019-04-05T04:06:10.414Z,17.80
2019-04-05T04:07:10.389Z,17.40
2019-04-05T04:08:10.391Z,17.60
2019-04-05T04:09:10.367Z,17.60
2019-04-05T04:10:10.357Z,16.30
2019-04-05T04:11:10.349Z,18.00
2019-04-05T04:12:10.341Z,17.90
2019-04-05T04:13:10.321Z,18.90
2019-04-05T04:14:10.327Z,17.90
2019-04-05T04:15:13.547Z,18.20
2019-04-05T04:16:10.291Z,17.10
2019-04-05T04:17:12.738Z,17.00
2019-04-05T04:18:10.387Z,16.30
2019-04-05T04:19:10.252Z,17.10
2019-04-05T04:20:10.251Z,17.20
2019-04-05T04:21:10.239Z,18.00
2019-04-05T04:22:10.283Z,17.30
2019-04-05T04:23:10.206Z,18.20
2019-04-05T04:24:10.220Z,17.40
2019-04-05T04:25:10.210Z,17.70
2019-04-05T04:26:10.171Z,17.80
2019-04-05T04:27:10.176Z,17.50
2019-04-05T04:28:10.153Z,17.50
2019-04-05T04:29:10.150Z,17.70
2019-04-05T04:30:10.134Z,17.40
2019-04-05T04:31:10.124Z,17.30
2019-04-05T04:32:10.110Z,18.30
2019-04-05T04:33:10.100Z,16.90
2019-04-05T04:34:10.098Z,17.10
2019-04-05T04:35:10.072Z,18.00
2019-04-05T04:36:13.139Z,17.50
2019-04-05T04:37:10.050Z,17.90
2019-04-05T04:38:10.073Z,17.70
2019-04-05T04:39:10.036Z,17.60
2019-04-05T04:40:10.027Z,17.20
2019-04-05T04:41:10.009Z,18.40
2019-04-05T04:42:10.003Z,17.10
2019-04-05T04:43:09.989Z,17.60
2019-04-05T04:44:09.979Z,17.90
2019-04-05T04:45:12.485Z,17.80
2019-04-05T04:46:09.955Z,18.00
2019-04-05T04:47:09.946Z,17.90
2019-04-05T04:48:09.937Z,18.60
2019-04-05T04:49:09.925Z,18.80
2019-04-05T04:50:09.974Z,19.70
2019-04-05T04:51:09.897Z,18.50
2019-04-05T04:52:09.889Z,17.80
2019-04-05T04:53:09.878Z,17.70
2019-04-05T04:54:09.875Z,17.50
2019-04-05T04:55:09.856Z,17.60
2019-04-05T04:56:09.847Z,18.30
2019-04-05T04:57:09.829Z,18.30
2019-04-05T04:58:09.821Z,17.70
2019-04-05T04:59:09.812Z,17.50
2019-04-05T05:00:09.807Z,18.80
2019-04-05T05:01:09.798Z,18.40
2019-04-05T05:02:09.773Z,19.30
2019-04-05T05:03:09.760Z,18.60
2019-04-05T05:04:09.756Z,19.40
2019-04-05T05:05:09.760Z,17.90
2019-04-05T05:06:09.752Z,18.10
2019-04-05T05:07:09.717Z,17.70
2019-04-05T05:08:09.711Z,18.30
2019-04-05T05:09:09.703Z,19.80
2019-04-05T05:10:09.692Z,18.40
2019-04-05T05:11:14.725Z,18.20
2019-04-05T05:12:10.699Z,18.00
2019-04-05T05:13:09.651Z,18.70
2019-04-05T05:14:09.651Z,18.60
2019-04-05T05:15:09.629Z,19.10
2019-04-05T05:16:09.622Z,19.50
2019-04-05T05:17:09.609Z,19.10
2019-04-05T05:18:09.608Z,18.70
2019-04-05T05:19:09.583Z,18.10
2019-04-05T05:20:09.584Z,18.80
2019-04-05T05:21:09.571Z,18.60
2019-04-05T05:22:09.554Z,18.50
2019-04-05T05:23:09.537Z,17.90
2019-04-05T05:24:09.534Z,18.10
2019-04-05T05:25:09.517Z,18.80
2019-04-05T05:26:09.522Z,17.90
2019-04-05T05:27:09.497Z,19.30
2019-04-05T05:28:09.485Z,18.90
2019-04-05T05:29:09.476Z,18.30
2019-04-05T05:30:09.467Z,18.60
2019-04-05T05:31:09.466Z,18.50
2019-04-05T05:32:09.872Z,18.70
2019-04-05T05:33:09.451Z,18.00
2019-04-05T05:34:09.422Z,18.70
2019-04-05T05:35:09.418Z,18.50
2019-04-05T05:36:10.679Z,18.90
2019-04-05T05:37:09.411Z,18.00
2019-04-05T05:38:09.375Z,18.10
2019-04-05T05:39:09.375Z,18.90
2019-04-05T05:40:09.354Z,18.90
2019-04-05T05:41:09.350Z,19.00
2019-04-05T05:42:09.389Z,18.60
2019-04-05T05:43:09.326Z,19.00
2019-04-05T05:44:09.311Z,19.30
2019-04-05T05:45:09.339Z,21.30
2019-04-05T05:46:09.285Z,23.40
2019-04-05T05:47:09.301Z,26.90
2019-04-05T05:48:09.277Z,28.70
2019-04-05T05:49:09.265Z,29.40
2019-04-05T05:50:09.244Z,30.20
2019-04-05T05:51:09.231Z,32.00
2019-04-05T05:52:09.232Z,32.90
2019-04-05T05:53:09.219Z,33.40
2019-04-05T05:54:09.198Z,35.00
2019-04-05T05:55:09.188Z,37.60
2019-04-05T05:56:09.179Z,37.80
2019-04-05T05:57:09.185Z,41.50
2019-04-05T05:58:09.157Z,42.50
2019-04-05T05:59:09.159Z,41.80
2019-04-05T06:00:09.174Z,42.10
2019-04-05T06:01:09.143Z,43.90
2019-04-05T06:02:09.140Z,44.80
2019-04-05T06:03:11.344Z,46.50
2019-04-05T06:04:09.096Z,45.40
2019-04-05T06:05:09.080Z,48.40
2019-04-05T06:06:09.081Z,49.30
2019-04-05T06:07:09.066Z,49.70
2019-04-05T06:08:09.051Z,50.30
2019-04-05T06:09:09.034Z,50.30
2019-04-05T06:10:09.028Z,49.70
2019-04-05T06:11:09.011Z,51.50
2019-04-05T06:12:09.016Z,53.40
2019-04-05T06:13:09.020Z,54.70
2019-04-05T06:14:08.982Z,56.50
2019-04-05T06:15:08.970Z,59.60
2019-04-05T06:16:08.969Z,58.90
2019-04-05T06:17:08.955Z,60.60
2019-04-05T06:18:12.040Z,62.30
2019-04-05T06:19:08.929Z,63.30
2019-04-05T06:20:08.916Z,65.40
2019-04-05T06:21:08.904Z,62.70
2019-04-05T06:22:08.899Z,64.90
2019-04-05T06:23:08.888Z,65.90
2019-04-05T06:24:08.887Z,62.90
2019-04-05T06:25:08.857Z,68.70
2019-04-05T06:26:08.877Z,69.40
2019-04-05T06:27:08.848Z,73.30
2019-04-05T06:28:08.826Z,71.20
2019-04-05T06:29:08.811Z,74.40
2019-04-05T06:30:08.799Z,73.10
2019-04-05T06:31:08.793Z,72.20
2019-04-05T06:32:08.781Z,75.60
2019-04-05T06:33:08.777Z,71.50
2019-04-05T06:34:08.756Z,71.60
2019-04-05T06:35:08.751Z,82.20
2019-04-05T06:36:08.738Z,76.40
2019-04-05T06:37:08.738Z,70.50
2019-04-05T06:38:08.716Z,73.70
2019-04-05T06:39:08.701Z,76.50
2019-04-05T06:40:08.693Z,75.00
2019-04-05T06:41:08.687Z,80.60
2019-04-05T06:42:08.688Z,76.20
2019-04-05T06:43:08.656Z,83.20
2019-04-05T06:44:08.653Z,86.10
2019-04-05T06:45:08.634Z,80.10
2019-04-05T06:46:08.630Z,83.80
2019-04-05T06:47:08.642Z,86.40
2019-04-05T06:48:18.988Z,81.40
2019-04-05T06:49:09.593Z,92.40
2019-04-05T06:50:08.584Z,88.40
2019-04-05T06:51:08.572Z,84.80
2019-04-05T06:52:08.556Z,81.30
2019-04-05T06:53:08.563Z,80.90
2019-04-05T06:54:08.548Z,77.70
2019-04-05T06:55:08.525Z,82.50
2019-04-05T06:56:08.518Z,78.40
2019-04-05T06:57:08.513Z,81.40
2019-04-05T06:58:10.310Z,79.70
2019-04-05T06:59:08.482Z,80.60
2019-04-05T07:00:08.472Z,82.90
2019-04-05T07:01:08.461Z,77.40
2019-04-05T07:02:08.447Z,83.70
2019-04-05T07:03:08.441Z,86.30
2019-04-05T07:04:08.444Z,84.30
2019-04-05T07:05:08.468Z,78.20
2019-04-05T07:06:08.407Z,76.50
2019-04-05T07:07:08.395Z,79.50
2019-04-05T07:08:08.384Z,80.70
2019-04-05T07:09:08.368Z,82.90
2019-04-05T07:10:08.359Z,85.80
2019-04-05T07:11:08.370Z,83.60
2019-04-05T07:12:08.388Z,87.70
2019-04-05T07:13:08.432Z,87.40
2019-04-05T07:14:08.324Z,87.00
2019-04-05T07:15:08.347Z,79.40
2019-04-05T07:16:10.998Z,88.90
2019-04-05T07:17:08.280Z,86.20
2019-04-05T07:18:08.270Z,90.10
2019-04-05T07:19:08.262Z,87.00
2019-04-05T07:20:08.250Z,86.10
2019-04-05T07:21:08.244Z,83.20
2019-04-05T07:22:08.229Z,84.70
2019-04-05T07:23:08.214Z,85.20
2019-04-05T07:24:08.201Z,83.80
2019-04-05T07:25:08.203Z,82.00
2019-04-05T07:26:08.183Z,81.90
2019-04-05T07:27:08.170Z,79.10
2019-04-05T07:28:08.159Z,81.60
2019-04-05T07:29:08.158Z,79.00
2019-04-05T07:30:08.141Z,76.50
2019-04-05T07:31:08.301Z,77.30
2019-04-05T07:32:08.129Z,79.50
2019-04-05T07:33:08.108Z,80.00
2019-04-05T07:34:08.099Z,80.70
2019-04-05T07:35:08.079Z,82.00
2019-04-05T07:36:08.075Z,77.10
2019-04-05T07:37:08.065Z,82.90
2019-04-05T07:38:09.782Z,83.10
2019-04-05T07:39:08.040Z,81.50
2019-04-05T07:40:08.040Z,77.70
2019-04-05T07:41:16.217Z,74.90
2019-04-05T07:42:08.012Z,74.10
2019-04-05T07:43:08.046Z,69.60
2019-04-05T07:44:07.985Z,72.10
2019-04-05T07:45:07.968Z,73.40
2019-04-05T07:46:08.011Z,75.00
2019-04-05T07:47:07.998Z,74.90
2019-04-05T07:48:07.939Z,75.90
2019-04-05T07:49:07.929Z,79.20
2019-04-05T07:50:07.918Z,80.00
2019-04-05T07:51:07.911Z,80.90
2019-04-05T07:52:07.893Z,85.40
2019-04-05T07:53:07.889Z,82.20
2019-04-05T07:54:07.874Z,81.70
2019-04-05T07:55:07.866Z,82.90
2019-04-05T07:56:07.854Z,79.60
2019-04-05T07:57:07.835Z,83.90
2019-04-05T07:58:07.833Z,83.40
2019-04-05T07:59:07.816Z,82.40
2019-04-05T08:00:07.807Z,76.20
2019-04-05T08:01:07.799Z,75.40
2019-04-05T08:02:07.786Z,81.10
2019-04-05T08:03:07.822Z,79.50
2019-04-05T08:04:07.763Z,81.50
2019-04-05T08:05:07.747Z,79.20
2019-04-05T08:06:07.742Z,81.00
2019-04-05T08:07:07.732Z,81.70
2019-04-05T08:08:07.716Z,83.20
2019-04-05T08:09:07.714Z,81.70
2019-04-05T08:10:07.699Z,77.80
2019-04-05T08:11:07.683Z,82.90
2019-04-05T08:12:07.673Z,80.10
2019-04-05T08:13:07.659Z,82.30
2019-04-05T08:14:07.664Z,80.30
2019-04-05T08:15:07.640Z,81.00
2019-04-05T08:16:07.629Z,79.40
2019-04-05T08:17:07.617Z,79.50
2019-04-05T08:18:07.611Z,81.80
2019-04-05T08:19:07.609Z,78.50
2019-04-05T08:20:07.581Z,78.60
2019-04-05T08:21:07.568Z,79.80
2019-04-05T08:22:07.557Z,73.80
2019-04-05T08:23:07.551Z,74.90
2019-04-05T08:24:07.541Z,76.50
2019-04-05T08:25:07.539Z,71.50
2019-04-05T08:26:07.515Z,76.90
2019-04-05T08:27:07.503Z,77.50
2019-04-05T08:28:07.491Z,75.50
2019-04-05T08:29:07.486Z,75.80
2019-04-05T08:30:07.484Z,76.40
2019-04-05T08:31:10.831Z,74.00
2019-04-05T08:32:14.284Z,74.40
2019-04-05T08:33:08.438Z,76.10
2019-04-05T08:34:07.429Z,75.40
2019-04-05T08:35:07.425Z,80.00
2019-04-05T08:36:07.421Z,78.10
2019-04-05T08:37:07.395Z,79.00
2019-04-05T08:38:07.387Z,77.40
2019-04-05T08:39:07.370Z,74.30
2019-04-05T08:40:07.362Z,74.30
2019-04-05T08:41:07.359Z,76.50
2019-04-05T08:42:07.334Z,77.50
2019-04-05T08:43:07.332Z,78.60
2019-04-05T08:44:07.314Z,79.20
2019-04-05T08:45:07.302Z,76.70
2019-04-05T08:46:07.306Z,76.00
2019-04-05T08:47:07.288Z,74.70
2019-04-05T08:48:07.282Z,76.30
2019-04-05T08:49:10.825Z,73.80
2019-04-05T08:50:07.252Z,74.00
2019-04-05T08:51:07.243Z,75.10
2019-04-05T08:52:07.259Z,72.10
2019-04-05T08:53:07.224Z,73.30
2019-04-05T08:54:07.209Z,72.60
2019-04-05T08:55:07.197Z,72.20
2019-04-05T08:56:07.188Z,72.80
2019-04-05T08:57:07.218Z,70.30
2019-04-05T08:58:07.172Z,71.20
2019-04-05T08:59:07.152Z,71.10
2019-04-05T09:00:07.168Z,72.20
2019-04-05T09:01:07.139Z,72.60
2019-04-05T09:02:07.122Z,72.50
2019-04-05T09:03:07.120Z,72.90
2019-04-05T09:04:07.158Z,74.40
2019-04-05T09:05:07.089Z,74.60
2019-04-05T09:06:07.080Z,72.10
2019-04-05T09:07:07.062Z,73.30
2019-04-05T09:08:07.073Z,70.60
2019-04-05T09:09:07.042Z,68.70
2019-04-05T09:10:07.051Z,66.60
2019-04-05T09:11:07.020Z,66.20
2019-04-05T09:12:07.005Z,67.50
2019-04-05T09:13:06.999Z,69.80
2019-04-05T09:14:06.997Z,70.70
2019-04-05T09:15:06.976Z,72.10
2019-04-05T09:16:06.964Z,72.90
2019-04-05T09:17:06.951Z,72.80
2019-04-05T09:18:06.943Z,75.30
2019-04-05T09:19:06.935Z,74.30
2019-04-05T09:20:06.923Z,75.90
2019-04-05T09:21:09.832Z,75.40
2019-04-05T09:22:06.890Z,76.10
2019-04-05T09:23:06.886Z,75.90
2019-04-05T09:24:06.868Z,75.20
2019-04-05T09:25:06.863Z,75.90
2019-04-05T09:26:06.851Z,71.70
2019-04-05T09:27:06.837Z,77.10
2019-04-05T09:28:06.831Z,73.40
2019-04-05T09:29:09.100Z,75.60
2019-04-05T09:30:06.816Z,72.80
2019-04-05T09:31:06.800Z,77.40
2019-04-05T09:32:06.790Z,74.60
2019-04-05T09:33:06.776Z,72.80
2019-04-05T09:34:06.764Z,75.20
2019-04-05T09:35:06.754Z,73.30
2019-04-05T09:36:06.751Z,76.20
2019-04-05T09:37:06.732Z,80.30
2019-04-05T09:38:06.714Z,80.60
2019-04-05T09:39:06.707Z,80.70
2019-04-05T09:40:06.752Z,79.80
2019-04-05T09:41:06.681Z,73.20
2019-04-05T09:42:06.676Z,76.30
2019-04-05T09:43:06.670Z,75.90
2019-04-05T09:44:06.654Z,73.40
2019-04-05T09:45:06.707Z,71.10
2019-04-05T09:46:06.640Z,69.30
2019-04-05T09:47:06.620Z,74.30
2019-04-05T09:48:06.616Z,72.90
2019-04-05T09:49:06.591Z,69.30
2019-04-05T09:50:06.580Z,70.00
2019-04-05T09:51:07.295Z,67.80
2019-04-05T09:52:06.565Z,67.80
2019-04-05T09:53:06.557Z,71.00
2019-04-05T09:54:06.541Z,67.90
2019-04-05T09:55:06.528Z,69.30
2019-04-05T09:56:06.701Z,67.10
2019-04-05T09:57:06.505Z,68.50
2019-04-05T09:58:06.489Z,69.80
2019-04-05T09:59:06.480Z,68.00
2019-04-05T10:00:06.466Z,68.00
2019-04-05T10:01:06.455Z,67.40
2019-04-05T10:02:06.459Z,66.90
2019-04-05T10:03:06.437Z,68.90
2019-04-05T10:04:06.443Z,72.50
2019-04-05T10:05:06.415Z,73.10
2019-04-05T10:06:06.396Z,72.40
2019-04-05T10:07:06.386Z,70.70
2019-04-05T10:08:06.383Z,72.00
2019-04-05T10:09:06.401Z,72.90
2019-04-05T10:10:06.356Z,69.30
2019-04-05T10:11:06.345Z,70.20
2019-04-05T10:12:06.328Z,65.80
2019-04-05T10:13:06.324Z,62.60
2019-04-05T10:14:06.305Z,67.70
2019-04-05T10:15:06.309Z,67.00
2019-04-05T10:16:06.282Z,67.50
2019-04-05T10:17:06.275Z,68.30
2019-04-05T10:18:06.277Z,64.90
2019-04-05T10:19:06.257Z,65.40
2019-04-05T10:20:06.251Z,65.80
2019-04-05T10:21:06.233Z,65.00
2019-04-05T10:22:06.215Z,65.90
2019-04-05T10:23:06.202Z,66.00
2019-04-05T10:24:06.199Z,64.60
2019-04-05T10:25:06.231Z,67.30
2019-04-05T10:26:06.168Z,67.70
2019-04-05T10:27:06.157Z,70.10
2019-04-05T10:28:06.145Z,65.80
2019-04-05T10:29:06.140Z,67.60
2019-04-05T10:30:06.138Z,67.90
2019-04-05T10:31:06.137Z,66.30
2019-04-05T10:32:06.105Z,67.20
2019-04-05T10:33:06.097Z,69.00
2019-04-05T10:34:06.077Z,69.10
2019-04-05T10:35:06.066Z,65.90
2019-04-05T10:36:06.056Z,66.10
2019-04-05T10:37:06.054Z,65.10
2019-04-05T10:38:06.041Z,68.20
2019-04-05T10:39:06.027Z,66.00
2019-04-05T10:40:06.025Z,68.00
2019-04-05T10:41:06.002Z,67.00
2019-04-05T10:42:06.012Z,65.80
2019-04-05T10:43:05.985Z,64.10
2019-04-05T10:44:05.972Z,63.00
2019-04-05T10:45:05.956Z,65.60
2019-04-05T10:46:05.960Z,64.70
2019-04-05T10:47:05.934Z,61.30
2019-04-05T10:48:05.937Z,65.70
2019-04-05T10:49:05.911Z,62.80
2019-04-05T10:50:05.916Z,64.60
2019-04-05T10:51:05.897Z,65.70
2019-04-05T10:52:05.877Z,66.00
2019-04-05T10:53:05.933Z,65.60
2019-04-05T10:54:05.856Z,64.10
2019-04-05T10:55:05.847Z,63.90
2019-04-05T10:56:05.833Z,64.10
2019-04-05T10:57:05.823Z,63.90
2019-04-05T10:58:05.819Z,65.20
2019-04-05T10:59:05.816Z,65.60
2019-04-05T11:00:05.795Z,61.20
2019-04-05T11:01:05.780Z,58.70
2019-04-05T11:02:05.767Z,60.60
2019-04-05T11:03:05.769Z,62.10
2019-04-05T11:04:05.744Z,59.00
2019-04-05T11:05:05.733Z,58.00
2019-04-05T11:06:05.738Z,57.00
2019-04-05T11:07:05.717Z,58.10
2019-04-05T11:08:05.718Z,61.40
2019-04-05T11:09:05.692Z,60.20
2019-04-05T11:10:05.715Z,58.60
2019-04-05T11:11:05.712Z,55.90
2019-04-05T11:12:08.474Z,57.40
2019-04-05T11:13:05.644Z,56.50
2019-04-05T11:14:13.598Z,58.30
2019-04-05T11:15:06.621Z,58.90
2019-04-05T11:16:05.617Z,58.50
2019-04-05T11:17:05.611Z,57.20
2019-04-05T11:18:05.591Z,53.60
2019-04-05T11:19:05.577Z,55.10
2019-04-05T11:20:20.144Z,57.10
2019-04-05T11:21:06.555Z,56.60
2019-04-05T11:22:05.549Z,55.50
2019-04-05T11:23:05.538Z,55.50
2019-04-05T11:24:05.522Z,54.00
2019-04-05T11:25:05.517Z,56.30
2019-04-05T11:26:05.515Z,57.00
2019-04-05T11:27:06.826Z,55.80
2019-04-05T11:28:05.482Z,55.60
2019-04-05T11:29:05.472Z,58.10
2019-04-05T11:30:05.459Z,53.80
2019-04-05T11:31:05.484Z,53.50
2019-04-05T11:32:05.433Z,55.20
2019-04-05T11:33:05.426Z,52.50
2019-04-05T11:34:05.416Z,52.80
2019-04-05T11:35:05.406Z,54.50
2019-04-05T11:36:05.393Z,53.40
2019-04-05T11:37:05.387Z,52.70
2019-04-05T11:38:05.374Z,55.30
2019-04-05T11:39:05.522Z,52.70
2019-04-05T11:40:05.355Z,53.40
2019-04-05T11:41:05.338Z,51.60
2019-04-05T11:42:05.349Z,53.20
2019-04-05T11:43:05.317Z,51.50
2019-04-05T11:44:05.304Z,52.40
2019-04-05T11:45:05.288Z,52.50
2019-04-05T11:46:05.277Z,52.60
2019-04-05T11:47:05.265Z,51.70
2019-04-05T11:48:05.269Z,51.30
2019-04-05T11:49:05.246Z,50.90
2019-04-05T11:50:05.238Z,51.80
2019-04-05T11:51:05.231Z,54.90
2019-04-05T11:52:05.217Z,53.30
2019-04-05T11:53:05.229Z,51.80
2019-04-05T11:54:05.192Z,53.40
2019-04-05T11:55:05.176Z,53.40
2019-04-05T11:56:14.653Z,50.60
2019-04-05T11:57:06.154Z,50.80
2019-04-05T11:58:05.143Z,52.40
2019-04-05T11:59:05.147Z,51.00
2019-04-05T12:00:05.128Z,48.50
2019-04-05T12:01:05.118Z,49.00
2019-04-05T12:02:05.097Z,46.40
2019-04-05T12:03:05.094Z,47.70
2019-04-05T12:04:05.089Z,48.00
2019-04-05T12:05:05.116Z,45.90
2019-04-05T12:06:05.067Z,47.70
2019-04-05T12:07:05.046Z,49.00
2019-04-05T12:08:05.036Z,47.30
2019-04-05T12:09:05.034Z,45.50
2019-04-05T12:10:13.073Z,47.00
2019-04-05T12:11:05.001Z,47.80
2019-04-05T12:12:04.993Z,48.60
2019-04-05T12:13:04.990Z,46.70
2019-04-05T12:14:05.004Z,44.60
2019-04-05T12:15:06.482Z,46.80
2019-04-05T12:16:06.057Z,46.80
2019-04-05T12:17:05.680Z,45.90
2019-04-05T12:18:05.325Z,47.50
2019-04-05T12:19:05.498Z,47.70
2019-04-05T12:20:04.921Z,46.00
2019-04-05T12:21:05.718Z,46.50
2019-04-05T12:22:05.842Z,46.40
2019-04-05T12:23:04.877Z,45.70
2019-04-05T12:24:04.857Z,45.20
2019-04-05T12:25:04.878Z,45.90
2019-04-05T12:26:05.048Z,45.40
2019-04-05T12:27:05.633Z,44.30
2019-04-05T12:28:06.932Z,44.00
2019-04-05T12:29:04.802Z,45.50
2019-04-05T12:30:04.793Z,43.70
2019-04-05T12:31:04.795Z,44.50
2019-04-05T12:32:04.775Z,45.00
2019-04-05T12:33:13.945Z,45.30
2019-04-05T12:34:05.752Z,43.70
2019-04-05T12:35:04.746Z,43.80
2019-04-05T12:36:04.730Z,44.50
2019-04-05T12:37:04.726Z,44.70
2019-04-05T12:38:07.014Z,43.60
2019-04-05T12:39:08.050Z,44.50
2019-04-05T12:40:05.242Z,43.40
2019-04-05T12:41:04.680Z,44.70
2019-04-05T12:42:04.659Z,45.40
2019-04-05T12:43:04.649Z,44.30
2019-04-05T12:44:04.647Z,42.30
2019-04-05T12:45:04.668Z,43.30
2019-04-05T12:46:04.622Z,43.80
2019-04-05T12:47:04.604Z,43.60
2019-04-05T12:48:04.600Z,45.10
2019-04-05T12:49:04.587Z,42.70
2019-04-05T12:50:04.576Z,43.60
2019-04-05T12:51:05.631Z,43.90
2019-04-05T12:52:04.550Z,44.80